createdAt,value
2019-06-10T00:03:17.471Z,4.69
2019-06-10T00:06:47.545Z,3.69
2019-06-10T00:10:17.704Z,4.93
2019-06-10T00:13:47.816Z,4.86
2019-06-10T00:17:17.847Z,4.19
2019-06-10T00:20:47.863Z,3.39
2019-06-10T00:24:20.823Z,4.91
2019-06-10T00:27:51.315Z,5.06
2019-06-10T00:31:21.401Z,4.71
2019-06-10T00:34:51.468Z,6.64
2019-06-10T00:38:21.659Z,5.89
2019-06-10T00:41:52.248Z,5.51
2019-06-10T00:45:22.446Z,5.51
2019-06-10T00:48:52.447Z,5.05
2019-06-10T00:52:22.566Z,5
2019-06-10T00:55:52.642Z,6.1
2019-06-10T00:59:22.831Z,4.58
2019-06-10T01:00:24.945Z,6.5
2019-06-10T01:03:55.950Z,4.75
2019-06-10T01:07:25.963Z,5.06
2019-06-10T01:10:56.069Z,4.38
2019-06-10T01:14:26.136Z,4.7
2019-06-10T01:17:56.207Z,5.01
2019-06-10T01:21:26.270Z,4.95
2019-06-10T01:24:56.424Z,4.15
2019-06-10T01:28:26.511Z,5.22
2019-06-10T01:31:56.621Z,5.19
2019-06-10T01:35:26.738Z,5.53
2019-06-10T01:38:56.712Z,5.12
2019-06-10T01:42:26.859Z,5.95
2019-06-10T01:45:56.968Z,5.76
2019-06-10T01:49:27.092Z,5.84
2019-06-10T01:52:57.202Z,5.55
2019-06-10T01:56:27.299Z,5.35
2019-06-10T01:59:57.373Z,5.05
2019-06-10T02:03:27.550Z,5.74
2019-06-10T02:06:57.810Z,6.25
2019-06-10T02:10:27.907Z,6.24
2019-06-10T02:13:57.940Z,5.46
2019-06-10T02:17:28.021Z,5.81
2019-06-10T02:21:00.714Z,6.26
2019-06-10T02:24:31.528Z,6.03
2019-06-10T02:28:01.891Z,6.49
2019-06-10T02:31:37.282Z,7.7
2019-06-10T02:35:14.184Z,5.97
2019-06-10T02:38:45.600Z,5.86
2019-06-10T02:42:30.256Z,6.09
2019-06-10T02:46:03.878Z,6.19
2019-06-10T02:49:48.104Z,6.03
2019-06-10T02:53:30.775Z,5.8
2019-06-10T02:57:04.709Z,5.25
2019-06-10T03:00:20.582Z,6.58
2019-06-10T03:03:54.510Z,6.64
2019-06-10T03:07:28.716Z,6.28
2019-06-10T03:11:03.845Z,6.42
2019-06-10T03:14:34.131Z,4.94
2019-06-10T03:18:04.174Z,6.96
2019-06-10T03:21:34.180Z,1.36
2019-06-10T03:25:04.241Z,5.46
2019-06-10T03:28:34.348Z,5.01
2019-06-10T03:32:05.182Z,5.1
2019-06-10T03:35:35.867Z,2.24
2019-06-10T03:39:06.699Z,5.53
2019-06-10T03:42:36.759Z,4.45
2019-06-10T03:46:06.822Z,4.38
2019-06-10T03:49:48.990Z,4.29
2019-06-10T03:53:25.237Z,2.86
2019-06-10T03:56:56.049Z,1.95
2019-06-10T04:00:27.594Z,3.94
2019-06-10T04:03:58.827Z,4.41
2019-06-10T04:07:31.239Z,4.35
2019-06-10T04:11:04.080Z,4.42
2019-06-10T04:14:34.134Z,3.68
2019-06-10T04:18:04.193Z,4.39
2019-06-10T04:21:34.351Z,3.94
2019-06-10T04:25:05.101Z,3.86
2019-06-10T04:28:35.121Z,4.14
2019-06-10T04:32:05.208Z,4.33
2019-06-10T04:35:35.252Z,6.08
2019-06-10T04:39:05.559Z,4.54
2019-06-10T04:42:35.663Z,4.16
2019-06-10T04:46:05.730Z,4.57
2019-06-10T04:49:35.853Z,4.03
2019-06-10T04:53:05.913Z,4.41
2019-06-10T04:56:36.031Z,3.7
2019-06-10T05:00:14.568Z,6.28
2019-06-10T05:03:44.853Z,4.21
2019-06-10T05:07:14.931Z,4.96
2019-06-10T05:10:44.955Z,4.06
2019-06-10T05:14:15.083Z,4.85
2019-06-10T05:17:45.222Z,4.51
2019-06-10T05:21:15.389Z,4.69
2019-06-10T05:24:45.443Z,5.7
2019-06-10T05:28:15.550Z,2.19
2019-06-10T05:31:45.655Z,5.16
2019-06-10T05:35:15.794Z,4.91
2019-06-10T05:38:46.013Z,5.09
2019-06-10T05:42:16.050Z,5.86
2019-06-10T05:45:46.085Z,5.16
2019-06-10T05:49:16.170Z,5.69
2019-06-10T05:52:46.532Z,5.9
2019-06-10T05:56:16.639Z,5.64
2019-06-10T05:59:46.763Z,5.31
2019-06-10T06:03:16.962Z,5.85
2019-06-10T06:06:46.977Z,5.92
2019-06-10T06:10:17.204Z,5.24
2019-06-10T06:13:47.354Z,6.66
2019-06-10T06:17:17.515Z,5.94
2019-06-10T06:20:47.581Z,5.85
2019-06-10T06:24:17.722Z,5.74
2019-06-10T06:27:47.862Z,5.96
2019-06-10T06:31:17.976Z,6.43
2019-06-10T06:34:47.966Z,5.72
2019-06-10T06:38:18.016Z,6.94
2019-06-10T06:41:48.097Z,3.33
2019-06-10T06:45:18.304Z,8.12
2019-06-10T06:48:48.425Z,7.74
2019-06-10T06:52:31.317Z,6.99
2019-06-10T06:56:18.324Z,7.26
2019-06-10T06:59:48.441Z,7.04
2019-06-10T07:00:35.349Z,8.35
2019-06-10T07:04:13.149Z,7.7
2019-06-10T07:07:43.525Z,7.92
2019-06-10T07:11:15.135Z,7.58
2019-06-10T07:14:47.200Z,6.47
2019-06-10T07:18:17.242Z,6.89
2019-06-10T07:22:08.056Z,5.19
2019-06-10T07:25:46.547Z,6.84
2019-06-10T07:29:17.431Z,7.52
2019-06-10T07:32:47.618Z,6.32
2019-06-10T07:36:17.980Z,6.83
2019-06-10T07:39:48.047Z,7.22
2019-06-10T07:43:18.097Z,6.79
2019-06-10T07:46:48.244Z,5.89
2019-06-10T07:50:18.658Z,6.17
2019-06-10T07:53:48.734Z,7.66
2019-06-10T07:57:18.842Z,8.81
2019-06-10T08:00:49.019Z,9.44
2019-06-10T08:04:19.183Z,9.75
2019-06-10T08:07:49.307Z,10.03
2019-06-10T08:11:19.291Z,7.56
2019-06-10T08:14:49.380Z,8.78
2019-06-10T08:18:19.465Z,10.84
2019-06-10T08:21:49.643Z,6.66
2019-06-10T08:25:19.863Z,7.12
2019-06-10T08:28:52.819Z,7.72
2019-06-10T08:32:24.532Z,8.88
2019-06-10T08:35:59.903Z,7.8
2019-06-10T08:39:33.262Z,7.83
2019-06-10T08:43:05.098Z,6.4
2019-06-10T08:46:35.105Z,7.02
2019-06-10T08:50:14.391Z,7.03
2019-06-10T08:53:46.558Z,6.41
2019-06-10T08:57:18.562Z,6.12
2019-06-10T09:00:15.493Z,6.59
2019-06-10T09:03:49.391Z,4.91
2019-06-10T09:07:23.220Z,5.4
2019-06-10T09:10:54.952Z,5.3
2019-06-10T09:14:25.490Z,4.51
2019-06-10T09:17:56.316Z,4.72
2019-06-10T09:21:26.515Z,5.4
2019-06-10T09:24:56.816Z,4.81
2019-06-10T09:28:27.195Z,4.64
2019-06-10T09:31:58.763Z,5.28
2019-06-10T09:35:28.963Z,5
2019-06-10T09:38:58.920Z,5.76
2019-06-10T09:42:34.585Z,4.05
2019-06-10T09:46:04.755Z,4.74
2019-06-10T09:49:36.079Z,3.98
2019-06-10T09:53:06.206Z,5.44
2019-06-10T09:56:36.456Z,3.34
2019-06-10T10:00:09.024Z,3.51
2019-06-10T10:03:39.108Z,4.44
2019-06-10T10:07:12.035Z,4.75
2019-06-10T10:10:46.002Z,3.62
2019-06-10T10:14:19.559Z,3.05
2019-06-10T10:17:52.066Z,3.59
2019-06-10T10:21:26.216Z,4.01
2019-06-10T10:24:57.036Z,3.8
2019-06-10T10:28:27.255Z,3.55
2019-06-10T10:31:57.328Z,3.75
2019-06-10T10:35:27.515Z,3.38
2019-06-10T10:38:57.499Z,3.53
2019-06-10T10:42:41.615Z,2.77
2019-06-10T10:46:16.069Z,2.62
2019-06-10T10:49:47.027Z,3.21
2019-06-10T10:53:17.250Z,2.38
2019-06-10T10:56:49.179Z,2.8
2019-06-10T11:00:15.081Z,3.05
2019-06-10T11:03:46.130Z,3.15
2019-06-10T11:07:17.923Z,2.88
2019-06-10T11:10:49.885Z,2.92
2019-06-10T11:14:23.263Z,3.01
2019-06-10T11:17:56.266Z,3.89
2019-06-10T11:21:26.534Z,3.8
2019-06-10T11:24:57.756Z,2.59
2019-06-10T11:28:27.792Z,3.91
2019-06-10T11:31:58.777Z,3.35
2019-06-10T11:35:29.035Z,3.76
2019-06-10T11:38:59.336Z,3.4
2019-06-10T11:42:29.465Z,3.24
2019-06-10T11:46:04.334Z,2.78
2019-06-10T11:49:37.545Z,3.24
2019-06-10T11:53:07.732Z,3.54
2019-06-10T11:56:37.926Z,3.58
2019-06-10T12:00:14.071Z,3.03
2019-06-10T12:03:48.366Z,3.46
2019-06-10T12:07:18.487Z,4.01
2019-06-10T12:10:49.051Z,3.46
2019-06-10T12:14:19.203Z,2.58
2019-06-10T12:17:52.639Z,2.69
2019-06-10T12:21:28.585Z,3.31
2019-06-10T12:25:27.191Z,3.62
2019-06-10T12:29:05.262Z,2.91
2019-06-10T12:32:35.856Z,2.81
2019-06-10T12:36:07.086Z,2.94
2019-06-10T12:39:37.621Z,2.8
2019-06-10T12:43:08.069Z,3.2
2019-06-10T12:46:38.157Z,3.59
2019-06-10T12:50:12.178Z,3.74
2019-06-10T12:53:43.466Z,2.55
2019-06-10T12:57:16.345Z,3.08
2019-06-10T13:00:22.683Z,6.05
2019-06-10T13:03:57.557Z,2.9
2019-06-10T13:07:28.071Z,3.04
2019-06-10T13:10:58.246Z,3.36
2019-06-10T13:14:28.362Z,2.81
2019-06-10T13:17:58.484Z,3.36
2019-06-10T13:21:28.619Z,2.84
2019-06-10T13:24:58.795Z,3.15
2019-06-10T13:28:28.848Z,3.07
2019-06-10T13:31:59.925Z,3.02
2019-06-10T13:35:32.184Z,2.16
2019-06-10T13:39:08.212Z,2.71
2019-06-10T13:42:42.399Z,2.51
2019-06-10T13:46:12.649Z,3.19
2019-06-10T13:49:42.951Z,2.66
2019-06-10T13:53:13.636Z,2.56
2019-06-10T13:56:47.546Z,2.94
2019-06-10T14:00:18.702Z,2.54
2019-06-10T14:03:49.035Z,2.84
2019-06-10T14:07:19.118Z,2.39
2019-06-10T14:10:49.352Z,2.55
2019-06-10T14:14:20.207Z,2.96
2019-06-10T14:17:52.816Z,3.01
2019-06-10T14:21:23.617Z,2.75
2019-06-10T14:24:54.046Z,2.41
2019-06-10T14:28:39.711Z,2.89
2019-06-10T14:32:11.881Z,3.64
2019-06-10T14:35:44.002Z,3.16
2019-06-10T14:39:15.887Z,3.45
2019-06-10T14:42:46.247Z,3.39
2019-06-10T14:46:17.665Z,2.66
2019-06-10T14:49:47.947Z,3.25
2019-06-10T14:53:17.994Z,3.39
2019-06-10T14:56:53.759Z,2.66
2019-06-10T15:00:17.676Z,2.66
2019-06-10T15:03:48.320Z,6.24
2019-06-10T15:07:20.156Z,3.17
2019-06-10T15:10:52.851Z,3.01
2019-06-10T15:14:23.448Z,2.38
2019-06-10T15:17:53.546Z,3.1
2019-06-10T15:21:23.779Z,2.67
2019-06-10T15:24:53.825Z,3.25
2019-06-10T15:28:24.093Z,4.18
2019-06-10T15:32:08.492Z,3.17
2019-06-10T15:35:44.094Z,3.66
2019-06-10T15:39:16.731Z,3.01
2019-06-10T15:42:48.530Z,4.47
2019-06-10T15:46:19.540Z,4.01
2019-06-10T15:49:52.535Z,3.92
2019-06-10T15:53:25.711Z,3.29
2019-06-10T15:56:56.695Z,3.71
2019-06-10T16:00:29.088Z,3.65
2019-06-10T16:03:59.532Z,3.25
2019-06-10T16:07:29.694Z,3.71
2019-06-10T16:10:59.750Z,3.93
2019-06-10T16:14:29.827Z,3.45
2019-06-10T16:18:02.613Z,3.8
2019-06-10T16:21:32.971Z,3.73
2019-06-10T16:25:03.484Z,3.24
2019-06-10T16:28:33.741Z,3.84
2019-06-10T16:32:03.758Z,4.33
2019-06-10T16:35:33.888Z,4.16
2019-06-10T16:39:05.903Z,3.41
2019-06-10T16:42:35.920Z,4.16
2019-06-10T16:46:06.112Z,3.06
2019-06-10T16:49:36.225Z,2.8
2019-06-10T16:53:06.380Z,4.68
2019-06-10T16:56:36.321Z,4.38
2019-06-10T17:00:11.937Z,5.44
2019-06-10T17:03:44.563Z,4.1
2019-06-10T17:07:14.723Z,5.15
2019-06-10T17:10:44.861Z,3.84
2019-06-10T17:14:14.994Z,3.65
2019-06-10T17:17:45.174Z,4.31
2019-06-10T17:21:15.448Z,6.11
2019-06-10T17:24:45.520Z,4.64
2019-06-10T17:28:18.476Z,4.8
2019-06-10T17:31:50.052Z,5.38
2019-06-10T17:35:20.154Z,3.99
2019-06-10T17:38:52.227Z,5.01
2019-06-10T17:42:28.182Z,4.42
2019-06-10T17:46:03.125Z,5.55
2019-06-10T17:49:34.915Z,4.99
2019-06-10T17:53:05.114Z,5.05
2019-06-10T17:56:36.343Z,4.32
2019-06-10T18:00:12.285Z,4.86
2019-06-10T18:03:44.806Z,4.76
2019-06-10T18:07:14.803Z,4.85
2019-06-10T18:10:44.896Z,4.51
2019-06-10T18:14:14.986Z,5.74
2019-06-10T18:17:45.051Z,5.48
2019-06-10T18:21:15.167Z,4.78
2019-06-10T18:24:45.408Z,4.1
2019-06-10T18:28:15.623Z,4.7
2019-06-10T18:31:45.759Z,4.23
2019-06-10T18:35:16.295Z,4.34
2019-06-10T18:38:46.326Z,4.9
2019-06-10T18:42:16.417Z,4.31
2019-06-10T18:45:47.159Z,4.79
2019-06-10T18:49:17.248Z,3.89
2019-06-10T18:52:48.247Z,4.64
2019-06-10T18:56:18.367Z,4.53
2019-06-10T18:59:48.470Z,4.79
2019-06-10T19:00:14.803Z,5.14
2019-06-10T19:03:45.104Z,4.53
2019-06-10T19:07:15.072Z,4.67
2019-06-10T19:10:45.194Z,4.88
2019-06-10T19:14:15.191Z,4.36
2019-06-10T19:17:45.242Z,5.41
2019-06-10T19:21:15.569Z,5.4
2019-06-10T19:24:45.692Z,4.71
2019-06-10T19:28:15.711Z,4.64
2019-06-10T19:31:46.349Z,4.76
2019-06-10T19:35:16.664Z,5.1
2019-06-10T19:38:46.724Z,4.21
2019-06-10T19:42:16.941Z,4.15
2019-06-10T19:45:46.974Z,4.06
2019-06-10T19:49:17.071Z,4.31
2019-06-10T19:52:47.111Z,4.25
2019-06-10T19:56:17.198Z,4.3
2019-06-10T20:00:03.687Z,4.96
2019-06-10T20:03:39.508Z,5.79
2019-06-10T20:07:09.936Z,4.04
2019-06-10T20:10:40.248Z,4.2
2019-06-10T20:14:12.705Z,3.82
2019-06-10T20:17:43.705Z,4.4
2019-06-10T20:21:13.780Z,3.71
2019-06-10T20:24:45.439Z,3.49
2019-06-10T20:28:16.950Z,4.45
2019-06-10T20:31:47.549Z,3.79
2019-06-10T20:35:19.034Z,3.88
2019-06-10T20:38:50.597Z,3.7
2019-06-10T20:42:23.031Z,3.66
2019-06-10T20:45:53.163Z,5.89
2019-06-10T20:49:23.379Z,3
2019-06-10T20:52:53.453Z,3.33
2019-06-10T20:56:23.549Z,3.48
2019-06-10T20:59:53.693Z,3
2019-06-10T21:00:33.589Z,3.72
2019-06-10T21:04:03.924Z,2.96
2019-06-10T21:07:36.096Z,3.03
2019-06-10T21:11:06.183Z,1.61
2019-06-10T21:14:36.197Z,2
2019-06-10T21:18:06.378Z,2.46
2019-06-10T21:21:36.484Z,2.45
2019-06-10T21:25:06.768Z,2.27
2019-06-10T21:28:36.908Z,2.89
2019-06-10T21:32:06.937Z,2.15
2019-06-10T21:35:37.072Z,1.3
2019-06-10T21:39:07.045Z,2.76
2019-06-10T21:42:37.183Z,2.21
2019-06-10T21:46:07.333Z,2.3
2019-06-10T21:49:37.497Z,2.52
2019-06-10T21:53:07.580Z,1.86
2019-06-10T21:56:37.630Z,2.48
2019-06-10T22:00:11.349Z,2.02
2019-06-10T22:03:49.158Z,1.65
2019-06-10T22:07:22.997Z,3.84
2019-06-10T22:10:55.046Z,1.06
2019-06-10T22:14:26.546Z,1.68
2019-06-10T22:17:56.637Z,1.61
2019-06-10T22:21:26.658Z,2.52
2019-06-10T22:24:56.881Z,2.96
2019-06-10T22:28:26.937Z,1.81
2019-06-10T22:31:57.319Z,2.6
2019-06-10T22:35:27.556Z,2.56
2019-06-10T22:38:59.255Z,1.74
2019-06-10T22:42:29.506Z,2.41
2019-06-10T22:45:59.954Z,2.31
2019-06-10T22:49:32.617Z,2.6
2019-06-10T22:53:03.890Z,2.54
2019-06-10T22:56:34.097Z,2.56
2019-06-10T23:00:12.976Z,2.16
2019-06-10T23:03:43.215Z,2.2
2019-06-10T23:07:13.409Z,1.08
2019-06-10T23:10:43.525Z,2.2
2019-06-10T23:14:13.622Z,2.66
2019-06-10T23:17:43.690Z,2.31
2019-06-10T23:21:13.780Z,3.54
2019-06-10T23:24:43.856Z,2.29
2019-06-10T23:28:14.000Z,3.02
2019-06-10T23:31:52.131Z,2.5
2019-06-10T23:35:24.496Z,2.62
2019-06-10T23:38:54.833Z,2.73
2019-06-10T23:42:24.997Z,0.82
2019-06-10T23:45:55.206Z,2.46
2019-06-10T23:49:25.235Z,2.45
2019-06-10T23:52:59.093Z,2.45
2019-06-10T23:56:32.487Z,2.53
